createdAt,value
2018-07-03T07:35:47.346Z,25.98
2018-07-03T07:37:26.468Z,25.78
2018-07-03T07:39:01.528Z,25.63
2018-07-03T07:40:37.624Z,25.93
2018-07-03T07:42:12.536Z,26.00
2018-07-03T07:43:52.486Z,26.12
2018-07-03T07:45:29.375Z,25.73
2018-07-03T07:47:06.769Z,26.29
2018-07-03T07:48:42.284Z,26.36
2018-07-03T07:50:17.618Z,26.36
2018-07-03T07:51:53.494Z,26.59
2018-07-03T07:53:30.550Z,26.59
2018-07-03T07:55:20.502Z,26.63
2018-07-03T07:57:02.315Z,26.80
2018-07-03T07:58:39.346Z,26.70
2018-07-03T08:00:17.251Z,26.74
2018-07-03T08:01:52.391Z,26.85
2018-07-03T08:03:28.534Z,26.74
2018-07-03T08:06:39.884Z,26.68
2018-07-03T08:08:16.077Z,26.56
2018-07-03T08:09:52.963Z,26.60
2018-07-03T08:11:33.882Z,26.62
2018-07-03T08:13:10.947Z,26.44
2018-07-03T08:14:50.259Z,26.54
2018-07-03T08:16:27.911Z,26.33
2018-07-03T08:18:07.328Z,26.36
2018-07-03T08:19:43.702Z,26.49
2018-07-03T08:21:19.731Z,26.52
2018-07-03T08:22:56.763Z,26.97
2018-07-03T08:24:35.037Z,27.06
2018-07-03T08:26:10.823Z,27.35
2018-07-03T08:27:47.223Z,27.39
2018-07-03T08:29:28.658Z,27.15
2018-07-03T08:31:08.935Z,27.08
2018-07-03T08:32:48.415Z,27.19
2018-07-03T08:34:26.987Z,26.58
2018-07-03T08:36:12.025Z,26.77
2018-07-03T08:37:51.785Z,27.01
2018-07-03T08:39:28.684Z,27.14
2018-07-03T08:41:07.363Z,27.55
2018-07-03T08:42:48.881Z,27.74
2018-07-03T08:44:26.562Z,27.08
2018-07-03T08:46:03.383Z,26.76
2018-07-03T08:47:40.602Z,26.65
2018-07-03T08:49:18.891Z,27.47
2018-07-03T08:50:57.059Z,27.63
2018-07-03T08:52:36.146Z,27.05
2018-07-03T08:54:29.444Z,26.60
2018-07-03T08:56:41.260Z,26.32
2018-07-03T08:58:17.126Z,26.87
2018-07-03T08:59:59.645Z,26.81
2018-07-03T09:01:38.683Z,26.86
2018-07-03T09:03:19.816Z,26.76
2018-07-03T09:05:00.390Z,27.10
2018-07-03T09:06:38.529Z,27.59
2018-07-03T09:08:16.881Z,27.86
2018-07-03T09:09:54.913Z,28.23
2018-07-03T09:11:35.262Z,28.44
2018-07-03T09:13:11.285Z,28.48
2018-07-03T09:14:48.211Z,28.47
2018-07-03T09:16:54.735Z,28.48
2018-07-03T09:18:32.384Z,28.39
2018-07-03T09:20:20.451Z,28.61
2018-07-03T09:21:56.732Z,28.73
2018-07-03T09:23:34.188Z,28.84
2018-07-03T09:25:11.214Z,28.34
2018-07-03T09:26:47.311Z,27.61
2018-07-03T09:28:24.160Z,27.76
2018-07-03T09:30:00.487Z,28.23
2018-07-03T09:31:36.528Z,28.61
2018-07-03T09:33:13.152Z,28.72
2018-07-03T09:34:51.467Z,28.84
2018-07-03T09:36:29.007Z,28.92
2018-07-03T09:38:07.674Z,28.77
2018-07-03T09:39:43.584Z,28.96
2018-07-03T09:41:21.683Z,29.08
2018-07-03T09:42:59.306Z,29.03
2018-07-03T09:44:35.755Z,28.91
2018-07-03T09:46:12.182Z,29.18
2018-07-03T09:47:52.532Z,28.83
2018-07-03T09:49:29.702Z,29.19
2018-07-03T09:51:05.536Z,29.22
2018-07-03T09:52:43.253Z,29.31
2018-07-03T09:54:20.656Z,29.08
2018-07-03T09:55:59.546Z,29.37
2018-07-03T09:57:38.885Z,29.48
2018-07-03T09:59:16.799Z,29.53
2018-07-03T10:00:59.331Z,29.74
2018-07-03T10:02:35.743Z,29.57
2018-07-03T10:04:11.982Z,29.27
2018-07-03T10:05:47.883Z,28.86
2018-07-03T10:07:25.707Z,29.34
2018-07-03T10:09:03.346Z,29.24
2018-07-03T10:10:41.171Z,28.99
2018-07-03T10:12:19.240Z,29.67
2018-07-03T10:13:55.631Z,29.86
2018-07-03T10:15:35.436Z,29.97
2018-07-03T10:17:14.132Z,30.20
2018-07-03T10:18:52.765Z,29.69
2018-07-03T10:20:29.271Z,29.61
2018-07-03T10:22:08.466Z,29.74
2018-07-03T10:23:46.843Z,29.96
2018-07-03T10:25:24.105Z,29.82
2018-07-03T10:27:02.045Z,29.91
2018-07-03T10:28:39.367Z,30.09
2018-07-03T10:30:17.472Z,30.14
2018-07-03T10:31:54.406Z,30.54
2018-07-03T10:33:31.263Z,30.50
2018-07-03T10:35:09.132Z,30.40
2018-07-03T10:36:46.389Z,30.49
2018-07-03T10:38:24.419Z,30.21
2018-07-03T10:40:07.195Z,30.48
2018-07-03T10:41:44.916Z,30.82
2018-07-03T10:43:21.808Z,30.98
2018-07-03T10:44:58.174Z,30.94
2018-07-03T10:46:38.148Z,30.94
2018-07-03T10:48:21.937Z,31.20
2018-07-03T10:50:05.617Z,31.25
2018-07-03T10:51:45.678Z,31.45
2018-07-03T10:53:39.364Z,31.51
2018-07-03T10:55:29.845Z,31.10
2018-07-03T10:57:10.322Z,31.46
2018-07-03T10:58:57.494Z,31.27
2018-07-03T11:00:37.504Z,31.48
2018-07-03T11:02:17.742Z,31.30
2018-07-03T11:03:56.553Z,31.30
2018-07-03T11:05:39.859Z,31.46
2018-07-03T11:07:25.293Z,30.64
2018-07-03T11:09:05.866Z,30.61
2018-07-03T11:10:50.197Z,31.20
2018-07-03T11:12:28.295Z,30.82
2018-07-03T11:14:07.601Z,30.77
2018-07-03T11:15:47.864Z,30.92
2018-07-03T11:17:31.078Z,29.99
2018-07-03T11:57:30.302Z,29.60
2018-07-03T11:59:06.657Z,29.86
2018-07-03T12:02:35.982Z,30.00
2018-07-03T12:04:12.804Z,29.98
2018-07-03T12:05:48.897Z,30.13
2018-07-03T12:07:33.240Z,29.94
2018-07-03T12:09:15.456Z,30.52
2018-07-03T12:10:51.622Z,30.83
2018-07-03T12:12:29.013Z,30.86
2018-07-03T12:14:08.517Z,29.93
2018-07-03T12:15:47.705Z,30.45
2018-07-03T12:17:26.486Z,30.41
2018-07-03T12:19:02.853Z,30.53
2018-07-03T12:20:40.691Z,30.72
2018-07-03T12:22:17.413Z,30.60
2018-07-03T12:23:55.486Z,30.95
2018-07-03T12:25:33.244Z,30.91
2018-07-03T12:27:12.789Z,30.89
2018-07-03T12:29:04.796Z,31.29
2018-07-03T12:30:40.707Z,31.70
2018-07-03T12:34:02.362Z,30.68
2018-07-03T12:35:38.561Z,30.61
2018-07-03T12:37:17.493Z,30.23
2018-07-03T12:38:55.084Z,30.04
2018-07-03T12:40:32.628Z,29.99
2018-07-03T12:42:10.273Z,30.17
2018-07-03T12:43:46.299Z,30.18
2018-07-03T12:45:21.366Z,30.38
2018-07-03T12:46:58.275Z,30.54
2018-07-03T12:48:35.814Z,30.69
2018-07-03T12:50:13.674Z,30.80
2018-07-03T12:51:55.882Z,30.57
2018-07-03T12:53:33.360Z,30.97
2018-07-03T12:55:10.995Z,30.79
2018-07-03T12:56:48.371Z,30.97
2018-07-03T12:58:25.037Z,30.33
2018-07-03T13:00:06.892Z,30.07
2018-07-03T13:01:41.994Z,29.90
2018-07-03T13:03:19.064Z,30.15
2018-07-03T13:04:58.589Z,30.43
2018-07-03T13:06:34.684Z,30.61
2018-07-03T13:08:10.770Z,30.08
2018-07-03T13:09:45.774Z,29.86
2018-07-03T13:11:21.674Z,30.27
2018-07-03T13:13:01.340Z,30.40
2018-07-03T13:14:36.564Z,30.47
2018-07-03T13:16:16.021Z,30.94
2018-07-03T13:17:53.590Z,30.91
2018-07-03T13:19:29.078Z,30.67
2018-07-03T13:21:04.444Z,30.87
2018-07-03T13:22:40.522Z,30.56
2018-07-03T13:24:17.367Z,30.93
2018-07-03T13:25:53.330Z,30.03
2018-07-03T13:27:28.450Z,30.23
2018-07-03T13:29:04.605Z,30.33
2018-07-03T13:30:42.550Z,30.65
2018-07-03T13:32:20.490Z,31.15
2018-07-03T13:33:55.635Z,31.23
2018-07-03T13:35:35.219Z,30.96
2018-07-03T13:37:11.771Z,30.92
2018-07-03T13:38:48.334Z,31.12
2018-07-03T13:40:25.949Z,31.36
2018-07-03T13:42:05.901Z,31.28
2018-07-03T13:46:57.355Z,31.45
2018-07-03T13:48:34.420Z,30.85
2018-07-03T13:50:11.324Z,30.82
2018-07-03T13:51:50.272Z,30.63
2018-07-03T13:53:27.253Z,30.86
2018-07-03T13:55:03.414Z,30.83
2018-07-03T13:56:39.215Z,31.07
2018-07-03T13:58:15.904Z,31.33
2018-07-03T13:59:51.420Z,31.05
2018-07-03T14:01:28.421Z,31.15
2018-07-03T14:03:04.779Z,30.95
2018-07-03T14:04:47.074Z,30.72
2018-07-03T14:06:23.870Z,30.84
2018-07-03T14:08:01.636Z,30.96
2018-07-03T14:09:40.567Z,31.40
2018-07-03T14:11:17.563Z,31.22
2018-07-03T14:12:54.648Z,31.32
2018-07-03T14:14:35.548Z,31.30
2018-07-03T14:16:13.350Z,30.91
2018-07-03T14:17:58.637Z,31.24
2018-07-03T14:19:43.423Z,30.83
2018-07-03T14:21:19.600Z,30.67
2018-07-03T14:23:00.919Z,30.86
2018-07-03T14:24:36.247Z,31.04
2018-07-03T14:26:11.228Z,31.20
2018-07-03T14:27:49.185Z,30.98
2018-07-03T14:29:25.624Z,30.68
2018-07-03T14:31:04.572Z,30.40
2018-07-03T14:32:40.661Z,30.24
2018-07-03T14:34:17.662Z,30.74
2018-07-03T14:35:59.119Z,30.45
2018-07-03T14:37:35.474Z,30.31
2018-07-03T14:39:16.504Z,30.60
2018-07-03T14:40:58.547Z,30.63
2018-07-03T14:42:35.711Z,30.87
2018-07-03T14:44:12.948Z,31.07
2018-07-03T14:45:50.897Z,31.26
2018-07-03T14:47:30.806Z,30.91
2018-07-03T14:49:14.796Z,30.50
2018-07-03T14:50:50.967Z,30.07
2018-07-03T14:52:26.294Z,30.85
2018-07-03T14:54:04.466Z,31.23
2018-07-03T14:55:42.433Z,31.09
2018-07-03T14:57:17.897Z,30.90
2018-07-03T14:58:53.846Z,30.84
2018-07-03T15:00:30.143Z,30.77
2018-07-03T15:02:08.862Z,31.07
2018-07-03T15:03:44.968Z,30.25
2018-07-03T15:05:25.080Z,30.01
2018-07-03T15:07:03.308Z,30.08
2018-07-03T15:08:39.199Z,30.52
2018-07-03T15:10:17.732Z,29.72
2018-07-03T15:11:53.873Z,29.11
2018-07-03T15:13:31.903Z,29.26
2018-07-03T15:15:13.070Z,29.61
2018-07-03T15:16:50.027Z,30.09
2018-07-03T15:18:30.217Z,30.31
2018-07-03T15:20:08.242Z,30.37
2018-07-03T15:21:45.341Z,30.53
2018-07-03T15:23:21.259Z,30.49
2018-07-03T15:24:57.033Z,30.39
2018-07-03T15:26:37.403Z,30.61
2018-07-03T15:28:20.230Z,30.61
2018-07-03T15:29:56.936Z,30.74
2018-07-03T15:31:34.079Z,30.81
2018-07-03T15:33:19.767Z,30.62
2018-07-03T15:34:57.243Z,30.62
2018-07-03T15:36:38.923Z,30.90
2018-07-03T15:38:17.323Z,30.85
2018-07-03T15:39:54.887Z,30.82
2018-07-03T15:41:32.821Z,31.33
2018-07-03T15:43:09.406Z,31.07
2018-07-03T15:44:57.876Z,31.18
2018-07-03T15:46:33.535Z,31.12
2018-07-03T15:48:16.334Z,30.97
2018-07-03T15:49:53.149Z,30.76
2018-07-03T15:51:28.529Z,30.52
2018-07-03T15:53:05.193Z,30.43
2018-07-03T15:54:42.578Z,30.06
2018-07-03T15:56:19.067Z,29.61
2018-07-03T15:57:54.261Z,29.94
2018-07-03T15:59:30.792Z,29.98
2018-07-03T16:01:06.209Z,30.11
2018-07-03T16:02:47.372Z,30.16
2018-07-03T16:05:36.158Z,30.32
2018-07-03T16:07:22.939Z,30.39
2018-07-03T16:09:15.762Z,30.40
2018-07-03T16:10:57.084Z,30.53
2018-07-03T16:12:32.767Z,30.65
2018-07-03T16:14:14.105Z,30.76
2018-07-03T16:15:50.284Z,30.71
2018-07-03T16:17:27.507Z,30.48
2018-07-03T16:19:11.242Z,30.54
2018-07-03T16:20:51.719Z,30.41
2018-07-03T16:22:29.204Z,30.55
2018-07-03T16:24:05.336Z,30.55
2018-07-03T16:25:41.420Z,30.32
2018-07-03T16:27:16.555Z,29.97
2018-07-03T16:28:54.975Z,29.56
2018-07-03T16:30:30.356Z,29.46
2018-07-03T16:32:06.739Z,29.01
2018-07-03T16:33:44.284Z,29.21
2018-07-03T16:35:20.828Z,29.16
2018-07-03T16:36:58.547Z,29.09
2018-07-03T16:38:33.732Z,29.38
2018-07-03T16:40:13.557Z,29.35
2018-07-03T16:41:50.241Z,29.71
2018-07-03T16:43:29.979Z,29.62
2018-07-03T16:45:08.301Z,29.53
2018-07-03T16:46:47.851Z,29.25
2018-07-03T16:48:28.192Z,29.21
2018-07-03T16:50:09.027Z,29.36
2018-07-03T16:51:46.752Z,28.72
2018-07-03T16:53:23.149Z,28.93
2018-07-03T16:55:02.563Z,29.19
2018-07-03T16:58:07.712Z,29.60
2018-07-03T16:59:44.304Z,29.38
2018-07-03T17:01:19.546Z,29.14
2018-07-03T17:03:00.505Z,28.83
2018-07-03T17:04:42.452Z,28.94
2018-07-03T17:06:21.602Z,28.39
2018-07-03T17:08:00.835Z,28.45
2018-07-03T17:09:38.244Z,28.01
2018-07-03T17:11:18.180Z,28.13
2018-07-03T17:13:09.461Z,27.99
2018-07-03T17:14:45.013Z,28.13
2018-07-03T17:16:21.635Z,27.97
2018-07-03T17:18:34.627Z,27.98
2018-07-03T17:20:11.330Z,28.13
2018-07-03T17:21:48.219Z,28.21
2018-07-03T17:23:25.866Z,27.73
2018-07-03T17:25:01.893Z,27.96
2018-07-03T17:26:38.593Z,27.99
2018-07-03T17:28:14.959Z,27.89
2018-07-03T17:29:52.547Z,27.88
2018-07-03T17:31:30.202Z,27.69
2018-07-03T17:33:08.979Z,27.77
2018-07-03T17:34:47.326Z,27.62
2018-07-03T17:36:23.762Z,27.43
2018-07-03T17:38:02.661Z,27.49
2018-07-03T17:39:50.470Z,27.52
2018-07-03T17:41:36.491Z,27.59
2018-07-03T17:43:22.514Z,27.76
2018-07-03T17:45:40.297Z,27.53
2018-07-03T17:47:16.999Z,27.61
2018-07-03T17:48:57.282Z,27.66
2018-07-03T17:50:34.179Z,27.70
2018-07-03T17:52:10.614Z,27.53
2018-07-03T17:53:47.485Z,27.46
2018-07-03T17:55:24.709Z,27.58
2018-07-03T17:57:02.944Z,27.54
2018-07-03T17:58:45.276Z,27.38
2018-07-03T18:00:22.876Z,27.20
2018-07-03T18:02:02.609Z,27.08
2018-07-03T18:03:47.358Z,26.86
2018-07-03T18:05:27.449Z,26.90
2018-07-03T18:07:11.138Z,26.67
2018-07-03T18:08:55.457Z,26.50
2018-07-03T18:10:32.750Z,26.73
2018-07-03T18:12:11.310Z,26.58
2018-07-03T18:13:50.335Z,26.59
2018-07-03T18:15:28.792Z,26.64
2018-07-03T18:17:07.010Z,26.60
2018-07-03T18:18:45.399Z,26.53
2018-07-03T18:20:25.099Z,26.52
2018-07-03T18:22:07.466Z,26.49
2018-07-03T18:23:56.318Z,26.40
2018-07-03T18:25:33.334Z,26.38
2018-07-03T18:27:14.688Z,26.41
2018-07-03T18:28:54.781Z,26.32
2018-07-03T18:30:37.553Z,26.32
2018-07-03T18:32:21.481Z,26.30
2018-07-03T18:34:01.370Z,26.31
2018-07-03T18:35:41.907Z,26.11
2018-07-03T18:37:28.486Z,26.02
2018-07-03T18:39:11.971Z,25.84
2018-07-03T18:40:49.859Z,25.78
2018-07-03T18:42:28.090Z,25.71
2018-07-03T18:44:06.838Z,25.63
2018-07-03T18:45:45.495Z,25.55
2018-07-03T18:47:23.713Z,25.51
2018-07-03T18:49:00.716Z,25.45
2018-07-03T18:50:40.409Z,25.31
2018-07-03T18:52:18.211Z,25.21
2018-07-03T18:53:55.685Z,25.21
2018-07-03T18:55:33.515Z,25.09
2018-07-03T18:57:12.143Z,25.01
2018-07-03T18:58:50.453Z,24.89
2018-07-03T19:00:30.110Z,24.78
2018-07-03T19:02:08.793Z,24.58
2018-07-03T19:03:48.331Z,24.42
2018-07-03T19:05:24.592Z,24.17
2018-07-03T19:07:02.751Z,23.96
2018-07-03T19:08:41.737Z,23.80
2018-07-03T19:10:46.932Z,23.57
2018-07-03T19:12:27.239Z,23.21
2018-07-03T19:14:06.594Z,23.00
2018-07-03T19:15:47.092Z,22.77
2018-07-03T19:17:26.813Z,22.54
2018-07-03T19:19:05.936Z,22.34
2018-07-03T19:20:48.344Z,22.19
2018-07-03T19:22:32.409Z,21.97
2018-07-03T19:24:10.650Z,21.77
2018-07-03T19:25:51.186Z,21.60
2018-07-03T19:27:30.933Z,21.35
2018-07-03T19:29:09.747Z,21.17
2018-07-03T19:30:48.642Z,21.01
2018-07-03T19:32:29.705Z,20.87
2018-07-03T19:34:06.532Z,20.74
2018-07-03T19:35:43.796Z,20.63
2018-07-03T19:37:22.886Z,20.51
2018-07-03T19:38:59.944Z,20.33
2018-07-03T19:40:40.057Z,20.18
2018-07-03T19:42:16.898Z,20.13
2018-07-03T19:43:54.819Z,19.95
2018-07-03T19:45:32.512Z,19.79
2018-07-03T19:47:10.279Z,19.62
2018-07-03T19:48:47.520Z,19.44
2018-07-03T19:50:27.918Z,19.27
2018-07-03T19:52:05.206Z,19.23
2018-07-03T19:53:41.964Z,19.11
2018-07-03T19:55:18.776Z,19.00
2018-07-03T19:56:55.821Z,18.91
2018-07-03T19:58:31.256Z,18.78
2018-07-03T20:00:10.729Z,18.73
2018-07-03T20:01:48.394Z,18.56
2018-07-03T20:03:25.727Z,18.48
2018-07-03T20:05:02.677Z,18.39
2018-07-03T20:06:42.017Z,18.36
2018-07-03T20:08:20.984Z,18.20
2018-07-03T20:09:57.860Z,18.05
2018-07-03T20:11:34.074Z,17.96
2018-07-03T20:13:15.607Z,17.88
2018-07-03T20:14:53.950Z,17.82
2018-07-03T20:18:49.404Z,17.70
2018-07-03T20:20:26.831Z,17.68
2018-07-03T20:22:04.531Z,17.65
2018-07-03T20:23:41.113Z,17.66
2018-07-03T20:25:23.251Z,17.58
2018-07-03T20:26:59.536Z,17.50
2018-07-03T20:28:38.297Z,17.43
2018-07-03T20:30:17.255Z,17.40
2018-07-03T20:31:56.715Z,17.28
2018-07-03T20:33:36.721Z,17.27
2018-07-03T20:35:12.403Z,17.25
2018-07-03T20:36:49.997Z,17.13
2018-07-03T20:38:25.270Z,17.11
2018-07-03T20:40:02.055Z,17.08
2018-07-03T20:41:40.599Z,17.07
2018-07-03T20:43:18.989Z,16.95
2018-07-03T20:44:57.667Z,16.90
2018-07-03T20:46:33.993Z,16.88
2018-07-03T20:48:23.930Z,16.80
2018-07-03T20:50:05.421Z,16.74
2018-07-03T20:51:42.177Z,16.69
2018-07-03T20:53:17.719Z,16.66
2018-07-03T20:54:57.408Z,16.58
2018-07-03T20:56:35.277Z,16.55
2018-07-03T20:58:13.246Z,16.55
2018-07-03T20:59:53.340Z,16.53
2018-07-03T21:01:30.318Z,16.51
2018-07-03T21:03:13.583Z,16.51
2018-07-03T21:04:56.171Z,16.46
2018-07-03T21:06:37.446Z,16.40
2018-07-03T21:08:14.624Z,16.40
2018-07-03T21:09:55.409Z,16.40
2018-07-03T21:11:36.171Z,16.30
2018-07-03T21:13:13.527Z,16.24
2018-07-03T21:14:53.142Z,16.26
2018-07-03T21:16:29.970Z,16.26
2018-07-03T21:18:11.491Z,16.24
2018-07-03T21:19:48.536Z,16.15
2018-07-03T21:21:26.082Z,16.13
2018-07-03T21:23:04.210Z,16.05
2018-07-03T21:24:46.714Z,16.06
2018-07-03T21:26:26.285Z,15.99
2018-07-03T21:28:04.970Z,15.95
2018-07-03T21:29:42.423Z,15.89
2018-07-03T21:31:19.632Z,15.86
2018-07-03T21:33:02.959Z,15.84
2018-07-03T21:34:43.271Z,15.72
2018-07-03T21:36:27.510Z,15.66
2018-07-03T21:38:07.522Z,15.61
2018-07-03T21:39:51.664Z,15.58
2018-07-03T21:41:29.843Z,15.50
2018-07-03T21:43:16.584Z,15.47
2018-07-03T21:44:57.332Z,15.41
2018-07-03T21:46:34.696Z,15.35
2018-07-03T21:48:11.371Z,15.31
2018-07-03T21:49:52.313Z,15.26
2018-07-03T21:51:30.334Z,15.25
2018-07-03T21:53:17.656Z,15.24
2018-07-03T21:54:55.449Z,15.23
2018-07-03T21:56:33.760Z,15.20
2018-07-03T21:58:10.094Z,15.27
2018-07-03T21:59:48.206Z,15.27
2018-07-03T22:01:25.484Z,15.28
2018-07-03T22:03:05.292Z,15.23
2018-07-03T22:04:47.262Z,15.19
2018-07-03T22:06:22.778Z,15.15
2018-07-03T22:07:59.868Z,15.13
2018-07-03T22:09:38.937Z,15.15
2018-07-03T22:11:30.524Z,15.17
2018-07-03T22:13:13.938Z,15.17
2018-07-03T22:14:50.607Z,15.13
2018-07-03T22:16:28.898Z,15.12
2018-07-03T22:18:06.761Z,15.12
2018-07-03T22:19:43.441Z,15.08
2018-07-03T22:21:24.100Z,15.06
2018-07-03T22:23:04.943Z,15.06
2018-07-03T22:24:41.850Z,15.01
2018-07-03T22:26:20.772Z,14.96
2018-07-03T22:27:56.852Z,14.88
2018-07-03T22:29:33.590Z,14.84
2018-07-03T22:31:10.281Z,14.82
2018-07-03T22:32:47.043Z,14.78
2018-07-03T22:34:26.994Z,14.77
2018-07-03T22:36:02.836Z,14.74
2018-07-03T22:37:39.312Z,14.71
2018-07-03T22:39:16.351Z,14.81
2018-07-03T22:40:52.766Z,14.78
2018-07-03T22:42:29.678Z,14.81
2018-07-03T22:44:08.403Z,14.78
2018-07-03T22:45:46.157Z,14.77
2018-07-03T22:47:21.982Z,14.81
2018-07-03T22:48:58.663Z,14.88
2018-07-03T22:50:39.513Z,14.90
2018-07-03T22:52:15.846Z,14.82
2018-07-03T22:53:55.765Z,14.82
2018-07-03T22:55:35.727Z,14.84
2018-07-03T22:57:15.428Z,14.81
2018-07-03T22:58:52.727Z,14.73
2018-07-03T23:00:34.604Z,14.67
2018-07-03T23:02:09.625Z,14.61
2018-07-03T23:03:46.380Z,14.60
2018-07-03T23:05:24.341Z,14.54
2018-07-03T23:07:04.299Z,14.49
2018-07-03T23:08:40.538Z,14.45
2018-07-03T23:10:18.867Z,14.40
2018-07-03T23:12:04.580Z,14.45
2018-07-03T23:13:41.706Z,14.41
2018-07-03T23:15:20.546Z,14.39
2018-07-03T23:16:58.453Z,14.39
2018-07-03T23:18:37.134Z,14.42
2018-07-03T23:20:16.108Z,14.45
2018-07-03T23:21:53.567Z,14.45
2018-07-03T23:23:32.095Z,14.48
2018-07-03T23:25:10.527Z,14.55
2018-07-03T23:26:50.574Z,14.59
2018-07-03T23:28:43.241Z,14.68
2018-07-03T23:30:23.501Z,14.75
2018-07-03T23:32:03.692Z,14.81
2018-07-03T23:33:41.212Z,14.78
2018-07-03T23:35:18.000Z,14.81
2018-07-03T23:36:53.360Z,14.91
2018-07-03T23:38:29.861Z,14.97
2018-07-03T23:40:05.544Z,14.99
2018-07-03T23:41:41.290Z,15.00
2018-07-03T23:43:16.625Z,15.02
2018-07-03T23:44:54.830Z,15.04
2018-07-03T23:46:44.813Z,15.10
2018-07-03T23:48:31.047Z,15.16
2018-07-03T23:50:17.774Z,15.19
2018-07-03T23:52:04.498Z,15.26
2018-07-03T23:53:52.267Z,15.26
2018-07-03T23:55:39.342Z,15.29
2018-07-03T23:57:25.622Z,15.31
2018-07-03T23:59:12.231Z,15.34
